createdAt,value
2018-12-11T00:00:46.952Z,100877.56
2018-12-11T00:03:14.407Z,100878.20
2018-12-11T00:05:41.911Z,100884.36
2018-12-11T00:08:09.354Z,100878.33
2018-12-11T00:10:36.767Z,100871.13
2018-12-11T00:13:04.206Z,100881.17
2018-12-11T00:15:32.215Z,100875.09
2018-12-11T00:17:59.642Z,100870.95
2018-12-11T00:20:27.574Z,100880.87
2018-12-11T00:22:55.175Z,100877.97
2018-12-11T00:25:22.671Z,100881.05
2018-12-11T00:27:50.126Z,100884.03
2018-12-11T00:30:17.531Z,100879.50
2018-12-11T00:32:44.944Z,100876.51
2018-12-11T00:35:12.382Z,100880.91
2018-12-11T00:37:39.785Z,100883.63
2018-12-11T00:40:07.222Z,100888.00
2018-12-11T00:42:34.655Z,100886.42
2018-12-11T00:45:02.142Z,100882.66
2018-12-11T00:47:29.567Z,100886.34
2018-12-11T00:49:57.023Z,100883.19
2018-12-11T00:52:24.461Z,100885.86
2018-12-11T00:54:51.919Z,100892.74
2018-12-11T00:57:19.376Z,100891.48
2018-12-11T00:59:46.799Z,100899.22
2018-12-11T01:02:14.242Z,100898.05
2018-12-11T01:04:41.663Z,100907.80
2018-12-11T01:07:09.100Z,100915.73
2018-12-11T01:09:36.520Z,100913.59
2018-12-11T01:12:03.991Z,100916.62
2018-12-11T01:14:31.516Z,100913.19
2018-12-11T01:16:58.974Z,100924.56
2018-12-11T01:19:26.415Z,100926.66
2018-12-11T01:21:53.830Z,100928.84
2018-12-11T01:24:21.245Z,100936.73
2018-12-11T01:26:48.688Z,100931.03
2018-12-11T01:29:16.115Z,100930.55
2018-12-11T01:31:43.557Z,100936.22
2018-12-11T01:34:10.998Z,100942.80
2018-12-11T01:36:38.407Z,100938.73
2018-12-11T01:39:07.982Z,100936.73
2018-12-11T01:41:35.386Z,100943.29
2018-12-11T01:44:02.840Z,100949.44
2018-12-11T01:46:30.320Z,100943.52
2018-12-11T01:48:57.757Z,100955.63
2018-12-11T01:51:25.230Z,100953.95
2018-12-11T01:53:52.651Z,100963.17
2018-12-11T01:56:20.071Z,100955.06
2018-12-11T01:58:47.507Z,100955.06
2018-12-11T02:01:14.971Z,100958.02
2018-12-11T02:03:43.297Z,100956.80
2018-12-11T02:06:10.707Z,100957.84
2018-12-11T02:08:38.118Z,100957.44
2018-12-11T02:11:05.530Z,100954.73
2018-12-11T02:13:32.981Z,100959.10
2018-12-11T02:16:00.415Z,100962.25
2018-12-11T02:18:27.834Z,100968.52
2018-12-11T02:20:55.260Z,100969.13
2018-12-11T02:23:22.673Z,100971.89
2018-12-11T02:25:50.096Z,100974.55
2018-12-11T02:28:17.576Z,100972.30
2018-12-11T02:30:45.024Z,100978.61
2018-12-11T02:33:12.445Z,100981.41
2018-12-11T02:35:39.874Z,100980.39
2018-12-11T02:38:07.288Z,100981.00
2018-12-11T02:40:34.702Z,100986.42
2018-12-11T02:43:02.103Z,100983.02
2018-12-11T02:45:29.537Z,100986.92
2018-12-11T02:47:56.960Z,100990.13
2018-12-11T02:50:24.482Z,100984.64
2018-12-11T02:52:51.910Z,100988.99
2018-12-11T02:55:19.368Z,100986.44
2018-12-11T02:57:46.793Z,100990.41
2018-12-11T03:00:14.292Z,100992.97
2018-12-11T03:02:41.742Z,101000.22
2018-12-11T03:05:09.186Z,100987.99
2018-12-11T03:07:36.653Z,100993.20
2018-12-11T03:10:05.626Z,100998.34
2018-12-11T03:12:33.040Z,101005.75
2018-12-11T03:15:00.574Z,101006.16
2018-12-11T03:17:28.017Z,101009.91
2018-12-11T03:19:55.527Z,101011.84
2018-12-11T03:22:22.942Z,101015.33
2018-12-11T03:24:50.380Z,101018.65
2018-12-11T03:27:17.800Z,101017.89
2018-12-11T03:29:45.214Z,101018.77
2018-12-11T03:32:12.671Z,101023.50
2018-12-11T03:34:40.097Z,101027.13
2018-12-11T03:37:07.511Z,101030.50
2018-12-11T03:39:34.939Z,101028.91
2018-12-11T03:42:02.395Z,101028.91
2018-12-11T03:44:29.863Z,101028.53
2018-12-11T03:46:57.292Z,101032.80
2018-12-11T03:49:24.732Z,101035.79
2018-12-11T03:51:52.150Z,101031.13
2018-12-11T03:54:19.597Z,101033.62
2018-12-11T03:56:47.038Z,101043.17
2018-12-11T03:59:14.494Z,101037.97
2018-12-11T04:01:41.919Z,101038.34
2018-12-11T04:04:09.382Z,101036.29
2018-12-11T04:06:36.788Z,101041.14
2018-12-11T04:09:05.961Z,101039.79
2018-12-11T04:11:33.378Z,101036.67
2018-12-11T04:14:00.798Z,101041.52
2018-12-11T04:16:28.242Z,101047.95
2018-12-11T04:18:55.668Z,101042.95
2018-12-11T04:21:23.089Z,101041.17
2018-12-11T04:23:50.509Z,101050.09
2018-12-11T04:26:17.930Z,101045.25
2018-12-11T04:28:45.338Z,101050.03
2018-12-11T04:31:12.762Z,101047.06
2018-12-11T04:33:40.177Z,101057.81
2018-12-11T04:36:07.620Z,101054.84
2018-12-11T04:38:35.043Z,101062.84
2018-12-11T04:41:02.492Z,101058.09
2018-12-11T04:43:29.904Z,101065.90
2018-12-11T04:45:57.362Z,101066.34
2018-12-11T04:48:24.798Z,101067.33
2018-12-11T04:50:52.238Z,101077.09
2018-12-11T04:53:19.663Z,101068.31
2018-12-11T04:55:47.103Z,101077.55
2018-12-11T04:58:14.542Z,101080.21
2018-12-11T05:00:41.966Z,101081.81
2018-12-11T05:03:09.432Z,101081.11
2018-12-11T05:05:36.875Z,101089.36
2018-12-11T05:08:06.246Z,101091.81
2018-12-11T05:10:33.654Z,101097.98
2018-12-11T05:13:01.074Z,101095.71
2018-12-11T05:15:28.491Z,101096.54
2018-12-11T05:17:55.891Z,101096.23
2018-12-11T05:20:23.435Z,101095.45
2018-12-11T05:22:50.845Z,101098.92
2018-12-11T05:25:18.267Z,101091.17
2018-12-11T05:27:45.687Z,101106.33
2018-12-11T05:30:13.121Z,101112.55
2018-12-11T05:32:40.549Z,101103.77
2018-12-11T05:35:08.023Z,101106.01
2018-12-11T05:37:35.454Z,101114.22
2018-12-11T05:40:03.285Z,101116.75
2018-12-11T05:42:30.718Z,101118.87
2018-12-11T05:44:58.118Z,101118.92
2018-12-11T05:47:25.599Z,101121.34
2018-12-11T05:49:53.010Z,101122.31
2018-12-11T05:52:20.422Z,101119.05
2018-12-11T05:54:47.831Z,101128.50
2018-12-11T05:57:15.282Z,101127.12
2018-12-11T05:59:42.697Z,101129.66
2018-12-11T06:02:10.106Z,101130.17
2018-12-11T06:04:37.539Z,101131.81
2018-12-11T06:07:05.015Z,101137.88
2018-12-11T06:09:32.430Z,101132.02
2018-12-11T06:11:59.846Z,101139.80
2018-12-11T06:14:27.258Z,101137.19
2018-12-11T06:16:54.670Z,101145.90
2018-12-11T06:19:22.117Z,101145.75
2018-12-11T06:21:49.541Z,101146.66
2018-12-11T06:24:16.939Z,101153.13
2018-12-11T06:26:44.382Z,101151.91
2018-12-11T06:29:11.882Z,101161.45
2018-12-11T06:31:39.290Z,101161.84
2018-12-11T06:34:06.716Z,101163.31
2018-12-11T06:36:34.142Z,101167.42
2018-12-11T06:39:01.547Z,101164.52
2018-12-11T06:41:28.963Z,101172.66
2018-12-11T06:43:56.390Z,101174.00
2018-12-11T06:46:23.798Z,101174.88
2018-12-11T06:48:51.282Z,101179.50
2018-12-11T06:51:18.715Z,101188.48
2018-12-11T06:53:46.135Z,101185.96
2018-12-11T06:56:13.563Z,101195.41
2018-12-11T06:58:40.995Z,101194.67
2018-12-11T07:01:08.420Z,101201.12
2018-12-11T07:03:35.835Z,101200.70
2018-12-11T07:06:03.251Z,101214.31
2018-12-11T07:08:30.651Z,101220.03
2018-12-11T07:10:58.070Z,101222.48
2018-12-11T07:13:25.477Z,101224.69
2018-12-11T07:15:52.926Z,101221.47
2018-12-11T07:18:25.807Z,101217.31
2018-12-11T07:20:49.745Z,101232.41
2018-12-11T07:23:17.197Z,101226.36
2018-12-11T07:25:44.599Z,101231.53
2018-12-11T07:28:12.031Z,101228.04
2018-12-11T07:30:39.502Z,101230.20
2018-12-11T07:33:06.902Z,101227.70
2018-12-11T07:35:34.316Z,101235.17
2018-12-11T07:38:01.721Z,101243.31
2018-12-11T07:40:29.140Z,101245.42
2018-12-11T07:42:56.641Z,101245.73
2018-12-11T07:45:24.082Z,101246.19
2018-12-11T07:47:51.547Z,101248.80
2018-12-11T07:50:18.977Z,101245.42
2018-12-11T07:52:46.391Z,101252.31
2018-12-11T07:55:13.826Z,101253.97
2018-12-11T07:57:41.226Z,101253.17
2018-12-11T08:00:08.680Z,101257.37
2018-12-11T08:02:36.074Z,101259.56
2018-12-11T08:05:03.539Z,101260.72
2018-12-11T08:07:30.958Z,101269.30
2018-12-11T08:09:58.378Z,101269.15
2018-12-11T08:12:25.790Z,101272.48
2018-12-11T08:14:53.205Z,101281.98
2018-12-11T08:17:20.642Z,101281.61
2018-12-11T08:19:48.074Z,101289.46
2018-12-11T08:22:15.509Z,101290.38
2018-12-11T08:24:43.224Z,101292.52
2018-12-11T08:27:10.643Z,101300.54
2018-12-11T08:29:38.054Z,101309.14
2018-12-11T08:32:05.487Z,101312.39
2018-12-11T08:34:32.944Z,101305.20
2018-12-11T08:37:00.388Z,101306.95
2018-12-11T08:39:27.790Z,101309.30
2018-12-11T08:41:55.299Z,101304.91
2018-12-11T08:44:22.706Z,101315.23
2018-12-11T08:46:50.116Z,101306.56
2018-12-11T08:49:17.525Z,101317.38
2018-12-11T08:51:44.927Z,101312.18
2018-12-11T08:54:12.338Z,101313.83
2018-12-11T08:56:39.811Z,101329.13
2018-12-11T08:59:07.215Z,101322.69
2018-12-11T09:01:34.750Z,101325.67
2018-12-11T09:04:02.164Z,101328.61
2018-12-11T09:06:29.570Z,101335.48
2018-12-11T09:08:56.992Z,101340.90
2018-12-11T09:11:24.439Z,101343.91
2018-12-11T09:13:51.867Z,101342.98
2018-12-11T09:16:19.288Z,101346.36
2018-12-11T09:18:46.704Z,101351.58
2018-12-11T09:21:14.110Z,101350.52
2018-12-11T09:23:42.411Z,101351.11
2018-12-11T09:26:09.802Z,101350.26
2018-12-11T09:28:37.232Z,101349.32
2018-12-11T09:31:04.642Z,101340.73
2018-12-11T09:33:32.051Z,101351.13
2018-12-11T09:35:59.454Z,101350.58
2018-12-11T09:38:26.874Z,101348.69
2018-12-11T09:40:54.289Z,101353.88
2018-12-11T09:43:21.719Z,101356.74
2018-12-11T09:45:49.147Z,101359.15
2018-12-11T09:48:16.584Z,101355.52
2018-12-11T09:50:43.992Z,101362.91
2018-12-11T09:53:11.398Z,101363.73
2018-12-11T09:55:38.844Z,101369.59
2018-12-11T09:58:06.267Z,101360.81
2018-12-11T10:00:33.740Z,101363.73
2018-12-11T10:03:01.194Z,101371.48
2018-12-11T10:05:28.628Z,101365.63
2018-12-11T10:07:56.039Z,101367.66
2018-12-11T10:10:23.467Z,101373.34
2018-12-11T10:12:50.873Z,101369.95
2018-12-11T10:15:18.289Z,101372.18
2018-12-11T10:17:45.702Z,101375.59
2018-12-11T10:20:13.661Z,101372.52
2018-12-11T10:22:41.107Z,101367.76
2018-12-11T10:25:08.547Z,101372.69
2018-12-11T10:27:35.952Z,101378.14
2018-12-11T10:30:06.403Z,101372.09
2018-12-11T10:32:33.818Z,101371.41
2018-12-11T10:35:01.235Z,101372.55
2018-12-11T10:37:28.651Z,101377.52
2018-12-11T10:39:56.079Z,101381.41
2018-12-11T10:42:23.496Z,101383.19
2018-12-11T10:44:50.905Z,101378.27
2018-12-11T10:47:18.353Z,101384.80
2018-12-11T10:49:45.775Z,101388.16
2018-12-11T10:52:13.214Z,101381.16
2018-12-11T10:54:41.175Z,101385.46
2018-12-11T10:57:08.588Z,101388.02
2018-12-11T10:59:36.022Z,101382.80
2018-12-11T11:02:05.391Z,101389.68
2018-12-11T11:04:32.831Z,101389.70
2018-12-11T11:07:00.247Z,101387.14
2018-12-11T11:09:27.655Z,101398.72
2018-12-11T11:11:55.081Z,101401.52
2018-12-11T11:14:22.584Z,101397.01
2018-12-11T11:16:49.993Z,101395.81
2018-12-11T11:19:17.399Z,101401.08
2018-12-11T11:21:44.799Z,101399.50
2018-12-11T11:24:12.238Z,101399.94
2018-12-11T11:26:39.644Z,101402.38
2018-12-11T11:29:07.199Z,101403.64
2018-12-11T11:31:34.606Z,101404.03
2018-12-11T11:34:02.136Z,101407.22
2018-12-11T11:36:29.534Z,101404.98
2018-12-11T11:38:56.942Z,101410.45
2018-12-11T11:41:24.379Z,101413.92
2018-12-11T11:43:51.795Z,101406.59
2018-12-11T11:46:19.401Z,101415.16
2018-12-11T11:48:46.823Z,101411.14
2018-12-11T11:51:14.231Z,101408.94
2018-12-11T11:53:42.747Z,101409.71
2018-12-11T11:56:10.150Z,101408.58
2018-12-11T11:58:37.567Z,101411.45
2018-12-11T12:01:05.001Z,101419.87
2018-12-11T12:03:32.455Z,101417.34
2018-12-11T12:05:59.868Z,101420.06
2018-12-11T12:08:27.286Z,101422.41
2018-12-11T12:10:54.703Z,101422.22
2018-12-11T12:13:22.119Z,101430.81
2018-12-11T12:15:49.527Z,101428.95
2018-12-11T12:18:16.954Z,101433.33
2018-12-11T12:20:44.363Z,101431.20
2018-12-11T12:23:11.766Z,101438.09
2018-12-11T12:25:39.233Z,101443.44
2018-12-11T12:28:06.755Z,101449.67
2018-12-11T12:30:34.515Z,101451.70
2018-12-11T12:33:01.935Z,101450.27
2018-12-11T12:35:29.368Z,101449.14
2018-12-11T12:37:56.787Z,101446.44
2018-12-11T12:40:24.194Z,101452.31
2018-12-11T12:42:51.629Z,101454.63
2018-12-11T12:45:19.040Z,101465.78
2018-12-11T12:47:46.438Z,101452.51
2018-12-11T12:50:13.880Z,101459.84
2018-12-11T12:52:41.288Z,101456.45
2018-12-11T12:55:08.719Z,101465.23
2018-12-11T12:57:36.224Z,101468.47
2018-12-11T13:00:04.287Z,101461.52
2018-12-11T13:02:31.702Z,101467.78
2018-12-11T13:04:59.101Z,101467.78
2018-12-11T13:07:26.507Z,101466.78
2018-12-11T13:09:53.923Z,101469.30
2018-12-11T13:12:21.384Z,101468.72
2018-12-11T13:14:49.061Z,101475.61
2018-12-11T13:17:16.637Z,101477.90
2018-12-11T13:19:44.095Z,101475.11
2018-12-11T13:22:11.494Z,101478.58
2018-12-11T13:24:38.902Z,101483.63
2018-12-11T13:27:06.327Z,101484.62
2018-12-11T13:29:33.731Z,101495.52
2018-12-11T13:32:01.202Z,101489.85
2018-12-11T13:34:28.620Z,101495.03
2018-12-11T13:36:56.038Z,101502.02
2018-12-11T13:39:23.439Z,101506.33
2018-12-11T13:41:50.879Z,101501.17
2018-12-11T13:44:18.299Z,101494.98
2018-12-11T13:46:46.064Z,101497.26
2018-12-11T13:49:13.476Z,101501.37
2018-12-11T13:51:40.885Z,101509.88
2018-12-11T13:54:08.288Z,101510.34
2018-12-11T13:56:35.690Z,101507.28
2018-12-11T13:59:03.101Z,101506.78
2018-12-11T14:01:30.571Z,101515.37
2018-12-11T14:03:58.001Z,101518.40
2018-12-11T14:06:25.531Z,101526.64
2018-12-11T14:08:52.977Z,101529.77
2018-12-11T14:11:20.379Z,101529.52
2018-12-11T14:13:47.798Z,101529.98
2018-12-11T14:16:15.232Z,101534.07
2018-12-11T14:18:42.666Z,101538.71
2018-12-11T14:21:10.102Z,101537.03
2018-12-11T14:23:37.519Z,101537.49
2018-12-11T14:26:04.959Z,101538.77
2018-12-11T14:28:32.367Z,101544.98
2018-12-11T14:30:59.779Z,101543.02
2018-12-11T14:33:27.226Z,101553.92
2018-12-11T14:35:54.662Z,101548.84
2018-12-11T14:38:22.118Z,101556.48
2018-12-11T14:40:49.546Z,101556.39
2018-12-11T14:43:16.974Z,101560.94
2018-12-11T14:45:44.386Z,101559.16
2018-12-11T14:48:11.806Z,101560.47
2018-12-11T14:50:39.207Z,101561.41
2018-12-11T14:53:06.622Z,101567.22
2018-12-11T14:55:34.033Z,101570.16
2018-12-11T14:58:01.465Z,101570.67
2018-12-11T15:00:28.878Z,101568.56
2018-12-11T15:02:56.422Z,101576.22
2018-12-11T15:05:24.247Z,101573.14
2018-12-11T15:07:51.723Z,101570.47
2018-12-11T15:10:19.170Z,101571.28
2018-12-11T15:12:46.590Z,101573.36
2018-12-11T15:15:14.000Z,101567.70
2018-12-11T15:17:41.449Z,101569.34
2018-12-11T15:20:08.882Z,101568.84
2018-12-11T15:22:36.363Z,101572.75
2018-12-11T15:25:04.135Z,101567.92
2018-12-11T15:27:31.535Z,101574.03
2018-12-11T15:29:58.975Z,101569.28
2018-12-11T15:32:26.377Z,101572.04
2018-12-11T15:34:53.848Z,101572.22
2018-12-11T15:37:21.247Z,101576.41
2018-12-11T15:39:48.675Z,101582.65
2018-12-11T15:42:16.214Z,101581.00
2018-12-11T15:44:43.634Z,101587.14
2018-12-11T15:47:11.140Z,101587.50
2018-12-11T15:49:38.547Z,101582.63
2018-12-11T15:52:05.994Z,101587.78
2018-12-11T15:54:33.406Z,101580.88
2018-12-11T15:57:02.151Z,101583.42
2018-12-11T15:59:29.643Z,101585.59
2018-12-11T16:01:57.089Z,101583.05
2018-12-11T16:04:24.502Z,101587.50
2018-12-11T16:06:51.914Z,101590.94
2018-12-11T16:09:21.305Z,101593.93
2018-12-11T16:11:48.718Z,101596.20
2018-12-11T16:14:16.126Z,101599.11
2018-12-11T16:16:43.629Z,101598.64
2018-12-11T16:19:11.157Z,101603.34
2018-12-11T16:21:38.574Z,101595.88
2018-12-11T16:24:06.010Z,101600.38
2018-12-11T16:26:33.448Z,101606.50
2018-12-11T16:29:00.876Z,101609.53
2018-12-11T16:31:28.295Z,101608.61
2018-12-11T16:33:55.716Z,101615.00
2018-12-11T16:36:23.133Z,101606.77
2018-12-11T16:38:50.578Z,101604.73
2018-12-11T16:41:17.987Z,101615.18
2018-12-11T16:43:45.438Z,101615.05
2018-12-11T16:46:12.866Z,101612.19
2018-12-11T16:48:40.286Z,101616.13
2018-12-11T16:51:07.701Z,101618.09
2018-12-11T16:53:35.104Z,101623.73
2018-12-11T16:56:02.516Z,101627.19
2018-12-11T16:58:29.935Z,101635.95
2018-12-11T17:00:57.347Z,101636.45
2018-12-11T17:03:24.759Z,101634.30
2018-12-11T17:05:52.186Z,101641.59
2018-12-11T17:08:19.582Z,101645.59
2018-12-11T17:10:46.987Z,101648.27
2018-12-11T17:13:14.395Z,101650.50
2018-12-11T17:15:41.816Z,101652.22
2018-12-11T17:18:09.227Z,101658.69
2018-12-11T17:20:36.761Z,101663.97
2018-12-11T17:23:04.206Z,101659.30
2018-12-11T17:25:31.603Z,101665.36
2018-12-11T17:27:59.010Z,101667.95
2018-12-11T17:30:26.439Z,101676.26
2018-12-11T17:32:53.843Z,101680.05
2018-12-11T17:35:21.259Z,101680.48
2018-12-11T17:37:48.684Z,101683.52
2018-12-11T17:40:16.102Z,101689.58
2018-12-11T17:42:43.494Z,101694.32
2018-12-11T17:45:10.935Z,101687.88
2018-12-11T17:47:38.375Z,101699.91
2018-12-11T17:50:06.745Z,101705.98
2018-12-11T17:52:34.182Z,101701.66
2018-12-11T17:55:01.647Z,101708.97
2018-12-11T17:57:29.057Z,101711.95
2018-12-11T17:59:56.475Z,101712.27
2018-12-11T18:02:24.726Z,101717.97
2018-12-11T18:04:52.146Z,101723.50
2018-12-11T18:07:19.602Z,101717.86
2018-12-11T18:09:47.030Z,101720.02
2018-12-11T18:12:14.470Z,101728.55
2018-12-11T18:14:41.890Z,101725.60
2018-12-11T18:17:09.311Z,101733.40
2018-12-11T18:19:36.737Z,101731.27
2018-12-11T18:22:04.284Z,101733.79
2018-12-11T18:24:31.710Z,101737.39
2018-12-11T18:26:59.688Z,101740.06
2018-12-11T18:29:27.102Z,101740.47
2018-12-11T18:31:54.851Z,101739.09
2018-12-11T18:34:22.494Z,101742.13
2018-12-11T18:36:49.937Z,101736.92
2018-12-11T18:39:17.337Z,101734.70
2018-12-11T18:41:44.762Z,101739.39
2018-12-11T18:44:12.190Z,101736.48
2018-12-11T18:46:39.615Z,101743.83
2018-12-11T18:49:07.035Z,101749.38
2018-12-11T18:51:34.459Z,101746.76
2018-12-11T18:54:01.895Z,101751.08
2018-12-11T18:56:29.342Z,101753.19
2018-12-11T18:58:56.776Z,101758.80
2018-12-11T19:01:24.183Z,101753.61
2018-12-11T19:03:51.613Z,101758.20
2018-12-11T19:06:19.030Z,101760.34
2018-12-11T19:08:46.442Z,101767.13
2018-12-11T19:11:13.854Z,101771.00
2018-12-11T19:13:41.590Z,101773.61
2018-12-11T19:16:09.103Z,101774.94
2018-12-11T19:18:37.218Z,101774.80
2018-12-11T19:21:04.784Z,101778.69
2018-12-11T19:23:32.251Z,101779.70
2018-12-11T19:25:59.699Z,101785.37
2018-12-11T19:28:27.153Z,101788.48
2018-12-11T19:30:55.506Z,101785.53
2018-12-11T19:33:23.758Z,101791.17
2018-12-11T19:35:51.169Z,101789.92
2018-12-11T19:38:18.590Z,101789.03
2018-12-11T19:40:46.027Z,101795.52
2018-12-11T19:43:13.458Z,101797.78
2018-12-11T19:45:40.903Z,101792.65
2018-12-11T19:48:08.639Z,101803.47
2018-12-11T19:50:36.246Z,101806.05
2018-12-11T19:53:03.882Z,101810.50
2018-12-11T19:55:31.349Z,101808.80
2018-12-11T19:57:59.732Z,101798.05
2018-12-11T20:00:27.547Z,101798.97
2018-12-11T20:02:55.179Z,101799.79
2018-12-11T20:05:22.616Z,101804.16
2018-12-11T20:07:50.399Z,101806.35
2018-12-11T20:10:20.604Z,101804.52
2018-12-11T20:12:48.062Z,101804.19
2018-12-11T20:15:15.491Z,101805.93
2018-12-11T20:17:43.062Z,101805.08
2018-12-11T20:20:22.542Z,101811.97
2018-12-11T20:22:50.023Z,101818.86
2018-12-11T20:25:17.597Z,101814.55
2018-12-11T20:27:45.078Z,101814.56
2018-12-11T20:30:12.491Z,101811.56
2018-12-11T20:32:39.959Z,101821.50
2018-12-11T20:35:07.427Z,101820.18
2018-12-11T20:37:35.618Z,101822.75
2018-12-11T20:40:04.215Z,101821.41
2018-12-11T20:42:31.694Z,101827.46
2018-12-11T20:44:59.106Z,101818.84
2018-12-11T20:47:26.521Z,101826.16
2018-12-11T20:49:53.946Z,101820.09
2018-12-11T20:52:21.366Z,101825.70
2018-12-11T20:54:48.787Z,101823.56
2018-12-11T20:57:16.222Z,101826.93
2018-12-11T20:59:43.642Z,101828.72
2018-12-11T21:02:11.054Z,101827.00
2018-12-11T21:04:38.467Z,101834.83
2018-12-11T21:07:05.956Z,101834.42
2018-12-11T21:09:33.372Z,101840.52
2018-12-11T21:12:00.857Z,101843.56
2018-12-11T21:14:28.314Z,101842.27
2018-12-11T21:16:55.716Z,101846.92
2018-12-11T21:19:23.156Z,101849.05
2018-12-11T21:21:50.627Z,101850.34
2018-12-11T21:24:18.383Z,101854.30
2018-12-11T21:26:45.862Z,101850.34
2018-12-11T21:29:13.708Z,101852.47
2018-12-11T21:31:41.178Z,101858.06
2018-12-11T21:34:08.600Z,101861.13
2018-12-11T21:36:36.018Z,101857.68
2018-12-11T21:39:05.892Z,101865.01
2018-12-11T21:41:33.306Z,101867.59
2018-12-11T21:44:00.773Z,101874.91
2018-12-11T21:46:28.278Z,101879.64
2018-12-11T21:48:55.712Z,101875.78
2018-12-11T21:51:23.130Z,101877.08
2018-12-11T21:53:50.576Z,101875.33
2018-12-11T21:56:18.034Z,101881.80
2018-12-11T21:58:45.491Z,101887.80
2018-12-11T22:01:13.026Z,101883.92
2018-12-11T22:03:41.539Z,101888.64
2018-12-11T22:06:09.410Z,101885.99
2018-12-11T22:08:36.855Z,101889.39
2018-12-11T22:11:04.322Z,101883.30
2018-12-11T22:13:31.774Z,101880.74
2018-12-11T22:15:59.198Z,101883.31
2018-12-11T22:18:26.634Z,101880.23
2018-12-11T22:20:54.088Z,101883.73
2018-12-11T22:23:21.575Z,101886.69
2018-12-11T22:25:49.059Z,101888.97
2018-12-11T22:28:16.466Z,101894.98
2018-12-11T22:30:43.900Z,101897.20
2018-12-11T22:33:11.300Z,101896.77
2018-12-11T22:35:38.731Z,101898.03
2018-12-11T22:38:06.154Z,101908.88
2018-12-11T22:40:33.621Z,101904.94
2018-12-11T22:43:01.048Z,101899.40
2018-12-11T22:45:28.495Z,101897.27
2018-12-11T22:47:55.931Z,101898.98
2018-12-11T22:50:23.425Z,101903.30
2018-12-11T22:52:50.854Z,101904.16
2018-12-11T22:55:18.286Z,101905.92
2018-12-11T22:57:45.695Z,101905.45
2018-12-11T23:00:13.242Z,101907.19
2018-12-11T23:02:40.667Z,101914.55
2018-12-11T23:05:08.167Z,101915.00
2018-12-11T23:07:35.597Z,101918.08
2018-12-11T23:10:03.655Z,101925.81
2018-12-11T23:12:31.091Z,101925.82
2018-12-11T23:14:58.524Z,101926.25
2018-12-11T23:17:25.947Z,101921.97
2018-12-11T23:19:53.351Z,101932.30
2018-12-11T23:22:20.769Z,101925.39
2018-12-11T23:24:48.407Z,101931.42
2018-12-11T23:27:15.902Z,101931.77
2018-12-11T23:29:43.316Z,101928.40
2018-12-11T23:32:10.770Z,101936.16
2018-12-11T23:34:38.214Z,101936.53
2018-12-11T23:37:05.677Z,101939.19
2018-12-11T23:39:33.128Z,101938.34
2018-12-11T23:42:00.547Z,101938.33
2018-12-11T23:44:27.971Z,101941.28
2018-12-11T23:46:55.504Z,101939.18
2018-12-11T23:49:22.922Z,101941.34
2018-12-11T23:51:50.353Z,101935.66
2018-12-11T23:54:18.592Z,101935.24
2018-12-11T23:56:46.007Z,101935.61
2018-12-11T23:59:13.446Z,101935.98
